Time;durP1;ratioP1;P1;durP2;ratioP2;P2;SDS_P1;SDS_P2;PMS_P1;PMS_P2;Temp;Humidity;BMP_temperature;BMP_pressure;BME280_temperature;BME280_humidity;BME280_pressure;Samples;Min_cycle;Max_cycle;Signal;HPM_P1;HPM_P2
2023/10/02 00:01:51;;;;;;;85.68;22.63;;;;;;;;;;5134763;27;20111;-70
2023/10/02 00:04:18;;;;;;;93.97;23.20;;;;;;;;;;5133694;27;20055;-71
2023/10/02 00:06:44;;;;;;;;;;;;;;;;;;5135079;27;20088;-70
2023/10/02 00:09:11;;;;;;;95.82;22.85;;;;;;;;;;5117128;28;19984;-70
2023/10/02 00:11:41;;;;;;;86.70;22.80;;;;;;;;;;5134623;28;20126;-70
2023/10/02 00:14:27;;;;;;;84.03;22.55;;;;;;;;;;5116154;28;20121;-70
2023/10/02 00:17:01;;;;;;;95.25;21.98;;;;;;;;;;5116475;28;20055;-70
2023/10/02 00:19:38;;;;;;;95.60;23.02;;;;;;;;;;5135186;28;20047;-70
2023/10/02 00:22:06;;;;;;;91.93;23.52;;;;;;;;;;5134657;28;20049;-70
2023/10/02 00:24:32;;;;;;;85.07;23.77;;;;;;;;;;5117043;28;20051;-70
2023/10/02 00:27:01;;;;;;;87.85;23.02;;;;;;;;;;5123161;28;20047;-70
2023/10/02 00:29:28;;;;;;;83.43;23.27;;;;;;;;;;5138570;28;20549;-69
2023/10/02 00:31:54;;;;;;;97.18;22.95;;;;;;;;;;5119439;28;20054;-69
2023/10/02 00:34:32;;;;;;;88.50;21.77;;;;;;;;;;5116656;28;20055;-71
2023/10/02 00:37:05;;;;;;;89.07;23.15;;;;;;;;;;5135127;28;20054;-69
2023/10/02 00:39:35;;;;;;;89.75;22.65;;;;;;;;;;5115346;28;20051;-71
2023/10/02 00:45:04;;;;;;;95.30;22.50;;;;;;;;;;5090396;28;20051;-69
2023/10/02 00:47:48;;;;;;;82.75;22.17;;;;;;;;;;5124590;28;20051;-70
2023/10/02 00:50:19;;;;;;;96.57;24.25;;;;;;;;;;5133229;28;20049;-70
2023/10/02 00:52:59;;;;;;;90.78;22.30;;;;;;;;;;5098225;28;20051;-69
2023/10/02 00:55:32;;;;;;;90.50;23.48;;;;;;;;;;5114923;28;20130;-70
2023/10/02 00:57:59;;;;;;;88.97;22.33;;;;;;;;;;5133452;28;20517;-70
2023/10/02 01:00:36;;;;;;;84.35;22.52;;;;;;;;;;5133277;28;20372;-69
2023/10/02 01:03:14;;;;;;;78.03;22.33;;;;;;;;;;5132732;28;20128;-69
2023/10/02 01:11:00;;;;;;;79.25;22.38;;;;;;;;;;5132778;28;20133;-70
2023/10/02 01:13:32;;;;;;;94.60;23.25;;;;;;;;;;5132585;28;20045;-69
2023/10/02 01:16:07;;;;;;;95.75;23.35;;;;;;;;;;5134350;27;20074;-70
2023/10/02 01:18:34;;;;;;;88.93;22.90;;;;;;;;;;5136124;28;20498;-69
2023/10/02 01:21:00;;;;;;;;;;;;;;;;;;5136512;28;20387;-70
2023/10/02 01:23:31;;;;;;;98.10;24.52;;;;;;;;;;5117669;28;19926;-70
2023/10/02 01:25:57;;;;;;;94.60;23.48;;;;;;;;;;5117761;28;20086;-70
2023/10/02 01:28:49;;;;;;;77.30;22.70;;;;;;;;;;5117597;28;20092;-69
2023/10/02 01:31:31;;;;;;;86.38;22.35;;;;;;;;;;5117876;28;20425;-70
2023/10/02 01:33:59;;;;;;;86.50;22.48;;;;;;;;;;5118205;28;20043;-69
2023/10/02 01:36:28;;;;;;;89.45;23.40;;;;;;;;;;5135766;28;20051;-70
2023/10/02 01:38:59;;;;;;;83.95;22.65;;;;;;;;;;5096455;27;1112855;-70
2023/10/02 01:41:26;;;;;;;82.43;22.48;;;;;;;;;;5137869;27;20380;-70
2023/10/02 01:43:55;;;;;;;89.75;23.05;;;;;;;;;;5137854;27;20058;-70
2023/10/02 01:46:22;;;;;;;91.30;23.45;;;;;;;;;;5137214;27;20143;-70
2023/10/02 01:48:50;;;;;;;91.97;24.25;;;;;;;;;;5137389;27;20047;-69
2023/10/02 01:51:25;;;;;;;91.50;24.40;;;;;;;;;;5137714;27;20066;-70
2023/10/02 01:53:54;;;;;;;87.95;23.83;;;;;;;;;;5118315;27;20051;-70
2023/10/02 01:56:22;;;;;;;92.30;23.08;;;;;;;;;;5118797;27;20050;-70
2023/10/02 01:58:49;;;;;;;86.45;24.10;;;;;;;;;;5118275;27;20394;-70
2023/10/02 02:01:15;;;;;;;97.88;24.45;;;;;;;;;;5137080;27;20043;-70
2023/10/02 02:03:46;;;;;;;100.05;25.02;;;;;;;;;;5136709;27;20483;-69
2023/10/02 02:06:16;;;;;;;90.82;24.17;;;;;;;;;;5101659;27;20439;-70
2023/10/02 02:08:47;;;;;;;90.63;24.00;;;;;;;;;;5118111;27;20077;-69
2023/10/02 02:11:20;;;;;;;90.85;24.90;;;;;;;;;;5136391;27;20047;-70
2023/10/02 02:13:54;;;;;;;91.70;24.92;;;;;;;;;;5136773;27;20083;-70
2023/10/02 02:16:33;;;;;;;94.88;24.02;;;;;;;;;;5137063;27;20047;-69
2023/10/02 02:19:05;;;;;;;93.82;24.60;;;;;;;;;;5118593;27;20435;-70
2023/10/02 02:21:31;;;;;;;98.65;25.33;;;;;;;;;;5136913;27;20378;-69
2023/10/02 02:24:03;;;;;;;91.95;24.30;;;;;;;;;;5100962;27;20050;-70
2023/10/02 02:26:33;;;;;;;100.68;25.38;;;;;;;;;;5136816;27;20122;-69
2023/10/02 02:29:02;;;;;;;84.28;23.67;;;;;;;;;;5099412;27;20441;-69
2023/10/02 02:31:29;;;;;;;96.68;24.67;;;;;;;;;;5135960;27;20460;-69
2023/10/02 02:33:59;;;;;;;96.93;26.58;;;;;;;;;;5135666;27;20459;-68
2023/10/02 02:36:34;;;;;;;102.97;26.20;;;;;;;;;;5136281;27;20085;-68
2023/10/02 02:39:15;;;;;;;100.05;25.67;;;;;;;;;;5117981;27;20071;-68
2023/10/02 02:41:41;;;;;;;96.38;24.70;;;;;;;;;;5135775;27;20059;-68
2023/10/02 02:44:29;;;;;;;90.93;24.65;;;;;;;;;;5136641;27;20047;-68
2023/10/02 02:46:53;;;;;;;97.93;23.75;;;;;;;;;;5135798;27;20095;-68
2023/10/02 02:49:21;;;;;;;91.40;23.87;;;;;;;;;;5117373;27;20436;-68
2023/10/02 02:51:50;;;;;;;96.15;25.02;;;;;;;;;;5136622;27;20312;-69
2023/10/02 02:54:16;;;;;;;93.80;25.02;;;;;;;;;;5117797;27;20051;-69
2023/10/02 02:56:42;;;;;;;97.70;25.37;;;;;;;;;;5117286;27;20047;-69
2023/10/02 02:59:08;;;;;;;95.00;25.70;;;;;;;;;;5100397;27;20047;-68
2023/10/02 03:01:34;;;;;;;92.30;26.05;;;;;;;;;;5116645;27;20104;-69
2023/10/02 03:04:11;;;;;;;92.63;25.70;;;;;;;;;;5135377;27;20042;-69
2023/10/02 03:06:38;;;;;;;92.70;25.85;;;;;;;;;;5117953;27;20059;-69
2023/10/02 03:09:08;;;;;;;95.45;26.35;;;;;;;;;;5135162;27;20122;-68
2023/10/02 03:11:34;;;;;;;97.00;24.90;;;;;;;;;;5136117;27;20074;-70
2023/10/02 03:14:13;;;;;;;96.32;26.08;;;;;;;;;;5135197;27;20054;-69
2023/10/02 03:16:39;;;;;;;95.05;25.33;;;;;;;;;;5117563;27;20051;-68
2023/10/02 03:19:08;;;;;;;100.63;25.30;;;;;;;;;;5135374;27;20082;-67
2023/10/02 03:21:38;;;;;;;97.70;25.85;;;;;;;;;;5135050;27;20043;-68
2023/10/02 03:24:07;;;;;;;98.20;25.08;;;;;;;;;;5134940;27;20100;-69
2023/10/02 03:29:03;;;;;;;102.75;26.02;;;;;;;;;;5134925;27;20043;-69
2023/10/02 03:31:36;;;;;;;93.85;23.48;;;;;;;;;;5134906;27;20043;-68
2023/10/02 03:34:24;;;;;;;92.85;24.95;;;;;;;;;;5135328;27;20490;-68
2023/10/02 03:36:49;;;;;;;96.82;25.55;;;;;;;;;;5134576;27;20130;-69
2023/10/02 03:39:23;;;;;;;92.13;24.77;;;;;;;;;;5134284;27;20409;-68
2023/10/02 03:41:50;;;;;;;95.15;24.30;;;;;;;;;;5117807;27;20047;-69
2023/10/02 03:44:16;;;;;;;93.45;26.13;;;;;;;;;;5134717;27;20372;-69
2023/10/02 03:46:42;;;;;;;96.87;24.07;;;;;;;;;;5134669;27;20047;-69
2023/10/02 03:49:09;;;;;;;96.18;25.98;;;;;;;;;;5116253;27;20068;-68
2023/10/02 03:51:40;;;;;;;93.95;25.98;;;;;;;;;;5135082;27;20372;-68
2023/10/02 03:54:17;;;;;;;101.30;26.02;;;;;;;;;;5116800;27;20055;-69
2023/10/02 03:56:49;;;;;;;101.43;26.60;;;;;;;;;;5116773;27;20047;-68
2023/10/02 03:59:21;;;;;;;95.63;25.38;;;;;;;;;;5134540;27;20043;-69
2023/10/02 04:01:48;;;;;;;99.97;26.83;;;;;;;;;;5134317;27;20047;-68
2023/10/02 04:06:43;;;;;;;103.13;25.73;;;;;;;;;;5116351;28;20494;-69
2023/10/02 04:09:18;;;;;;;98.10;25.38;;;;;;;;;;5098635;28;20308;-69
2023/10/02 04:11:45;;;;;;;105.40;25.98;;;;;;;;;;5101230;28;20058;-68
2023/10/02 04:14:17;;;;;;;99.35;24.42;;;;;;;;;;5116003;28;20134;-68
2023/10/02 04:17:01;;;;;;;103.95;26.67;;;;;;;;;;5116954;28;20047;-72
2023/10/02 04:19:27;;;;;;;98.68;24.85;;;;;;;;;;5134365;28;20047;-69
2023/10/02 04:21:56;;;;;;;107.17;27.10;;;;;;;;;;5115936;28;20051;-70
2023/10/02 04:24:26;;;;;;;93.65;25.08;;;;;;;;;;5134451;28;20051;-68
2023/10/02 04:27:14;;;;;;;100.28;25.95;;;;;;;;;;5116205;28;20062;-68
2023/10/02 04:30:02;;;;;;;98.45;26.42;;;;;;;;;;5134657;28;20047;-68
2023/10/02 04:32:26;;;;;;;94.40;25.65;;;;;;;;;;5134007;28;20386;-69
2023/10/02 04:34:56;;;;;;;91.87;23.77;;;;;;;;;;5115875;28;20092;-69
2023/10/02 04:37:23;;;;;;;93.78;24.08;;;;;;;;;;5115837;28;20113;-68
2023/10/02 04:42:57;;;;;;;100.13;25.60;;;;;;;;;;5134165;28;20092;-69
2023/10/02 04:45:25;;;;;;;106.70;26.90;;;;;;;;;;5134039;28;20094;-68
2023/10/02 04:47:54;;;;;;;106.93;26.02;;;;;;;;;;5133898;28;20087;-69
2023/10/02 04:55:44;;;;;;;100.93;26.67;;;;;;;;;;5138201;27;20503;-69
2023/10/02 04:58:14;;;;;;;112.50;26.95;;;;;;;;;;5120378;27;20347;-69
2023/10/02 05:03:31;;;;;;;94.97;24.52;;;;;;;;;;5138012;27;20483;-69
2023/10/02 05:05:58;;;;;;;99.88;26.88;;;;;;;;;;5137349;27;20055;-67
2023/10/02 05:11:24;;;;;;;105.28;25.42;;;;;;;;;;5137337;27;19919;-69
2023/10/02 05:16:34;;;;;;;101.57;25.23;;;;;;;;;;5137085;27;20134;-69
2023/10/02 05:19:01;;;;;;;103.35;26.35;;;;;;;;;;5137163;27;20436;-67
2023/10/02 05:21:38;;;;;;;106.80;26.65;;;;;;;;;;5137080;27;20051;-69
2023/10/02 05:24:05;;;;;;;103.70;25.80;;;;;;;;;;5120866;27;20140;-68
2023/10/02 05:26:36;;;;;;;;;;;;;;;;;;5137513;27;20149;-68
2023/10/02 05:29:05;;;;;;;97.03;24.00;;;;;;;;;;5137302;27;19923;-69
2023/10/02 05:31:35;;;;;;;104.97;25.67;;;;;;;;;;5137210;27;20046;-69
2023/10/02 05:34:06;;;;;;;102.80;24.15;;;;;;;;;;5119169;27;20372;-68
2023/10/02 05:36:35;;;;;;;103.07;25.48;;;;;;;;;;5119498;27;20047;-70
2023/10/02 05:39:27;;;;;;;99.97;26.42;;;;;;;;;;5136957;27;20444;-67
2023/10/02 05:41:56;;;;;;;101.22;25.85;;;;;;;;;;5121993;27;20047;-69
2023/10/02 05:44:26;;;;;;;97.35;24.77;;;;;;;;;;5136789;27;20082;-69
2023/10/02 05:46:55;;;;;;;105.57;25.13;;;;;;;;;;5136648;27;20048;-69
2023/10/02 05:49:24;;;;;;;100.70;25.77;;;;;;;;;;5136639;27;20083;-68
2023/10/02 05:51:55;;;;;;;99.95;25.67;;;;;;;;;;5137230;27;20043;-68
2023/10/02 05:54:35;;;;;;;103.78;26.08;;;;;;;;;;5102218;27;20447;-69
2023/10/02 05:57:12;;;;;;;101.85;24.80;;;;;;;;;;5136746;27;20469;-69
2023/10/02 05:59:54;;;;;;;96.68;24.73;;;;;;;;;;5137267;27;20357;-68
2023/10/02 06:02:22;;;;;;;104.70;25.80;;;;;;;;;;5118342;27;20387;-68
2023/10/02 06:04:49;;;;;;;95.68;25.45;;;;;;;;;;5117903;27;20050;-68
2023/10/02 06:07:19;;;;;;;107.57;26.25;;;;;;;;;;5101818;27;20355;-68
2023/10/02 06:09:46;;;;;;;96.95;25.63;;;;;;;;;;5136176;27;20431;-69
2023/10/02 06:12:12;;;;;;;;;;;;;;;;;;5118229;27;20137;-68
2023/10/02 06:14:45;;;;;;;97.13;24.75;;;;;;;;;;5118339;27;19919;-68
2023/10/02 06:17:11;;;;;;;115.75;26.90;;;;;;;;;;5118534;27;20370;-69
2023/10/02 06:19:44;;;;;;;101.88;27.10;;;;;;;;;;5135979;27;20490;-69
2023/10/02 06:22:13;;;;;;;104.93;26.73;;;;;;;;;;5135887;27;20043;-68
2023/10/02 06:24:39;;;;;;;92.47;25.25;;;;;;;;;;5117606;27;20051;-69
2023/10/02 06:27:12;;;;;;;106.90;26.75;;;;;;;;;;5117511;27;20444;-67
2023/10/02 06:29:39;;;;;;;97.38;26.75;;;;;;;;;;5135762;27;20122;-69
2023/10/02 06:32:09;;;;;;;106.43;27.35;;;;;;;;;;5118019;27;20039;-70
2023/10/02 06:34:36;;;;;;;109.07;27.52;;;;;;;;;;5135931;27;20379;-70
2023/10/02 06:37:07;;;;;;;102.90;26.33;;;;;;;;;;5135657;27;20043;-69
2023/10/02 06:39:35;;;;;;;96.00;26.52;;;;;;;;;;5097671;28;20068;-68
2023/10/02 06:42:08;;;;;;;97.60;26.23;;;;;;;;;;5115155;28;20104;-69
2023/10/02 06:44:59;;;;;;;111.30;27.48;;;;;;;;;;5115010;28;20096;-69
2023/10/02 06:47:24;;;;;;;100.80;26.52;;;;;;;;;;5113118;28;20423;-68
2023/10/02 06:50:02;;;;;;;91.40;25.52;;;;;;;;;;5114434;28;20086;-69
2023/10/02 06:52:29;;;;;;;107.45;27.00;;;;;;;;;;5114365;28;20128;-69
2023/10/02 06:54:56;;;;;;;101.85;26.33;;;;;;;;;;5097335;28;20054;-68
2023/10/02 06:57:24;;;;;;;93.80;26.13;;;;;;;;;;5115449;28;20087;-69
2023/10/02 06:59:51;;;;;;;97.88;26.10;;;;;;;;;;5115056;28;20123;-69
2023/10/02 07:02:26;;;;;;;105.80;26.85;;;;;;;;;;5097204;28;20062;-69
2023/10/02 07:04:56;;;;;;;92.80;26.33;;;;;;;;;;5114053;28;20369;-69
2023/10/02 07:07:29;;;;;;;91.68;27.00;;;;;;;;;;5114153;28;20044;-69
2023/10/02 07:10:10;;;;;;;89.28;24.85;;;;;;;;;;5115016;28;20059;-69
2023/10/02 07:12:40;;;;;;;86.40;24.60;;;;;;;;;;5113343;28;20040;-69
2023/10/02 07:15:13;;;;;;;96.85;25.73;;;;;;;;;;5114047;28;20051;-69
2023/10/02 07:17:49;;;;;;;99.03;25.73;;;;;;;;;;5114962;28;20051;-68
2023/10/02 07:20:17;;;;;;;88.10;25.30;;;;;;;;;;5114868;28;20040;-69
2023/10/02 07:22:43;;;;;;;94.30;25.48;;;;;;;;;;5113363;28;20110;-70
2023/10/02 07:25:09;;;;;;;90.47;25.07;;;;;;;;;;5115068;28;20050;-67
2023/10/02 07:27:37;;;;;;;87.45;23.75;;;;;;;;;;5113681;28;20074;-68
2023/10/02 07:30:04;;;;;;;94.55;25.45;;;;;;;;;;5114085;28;20119;-69
2023/10/02 07:32:32;;;;;;;93.07;26.02;;;;;;;;;;5114041;28;20047;-69
2023/10/02 07:35:21;;;;;;;89.82;25.70;;;;;;;;;;5114320;28;20073;-69
2023/10/02 07:37:57;;;;;;;86.03;26.00;;;;;;;;;;5113972;28;20117;-69
2023/10/02 07:40:49;;;;;;;95.75;24.75;;;;;;;;;;5130779;27;20481;-68
2023/10/02 07:43:18;;;;;;;89.60;24.40;;;;;;;;;;5115958;27;20550;-68
2023/10/02 07:45:44;;;;;;;88.80;25.92;;;;;;;;;;5134492;27;20058;-69
2023/10/02 07:48:19;;;;;;;84.60;24.17;;;;;;;;;;5134475;27;20042;-69
2023/10/02 07:50:46;;;;;;;90.47;24.55;;;;;;;;;;5134726;27;20046;-69
2023/10/02 07:53:12;;;;;;;;;;;;;;;;;;5134906;27;20407;-67
2023/10/02 07:55:42;;;;;;;88.97;25.35;;;;;;;;;;5115994;27;19927;-68
2023/10/02 07:58:08;;;;;;;83.35;24.35;;;;;;;;;;5134270;27;20047;-68
2023/10/02 08:00:43;;;;;;;98.47;26.10;;;;;;;;;;5134419;27;20092;-69
2023/10/02 08:05:56;;;;;;;83.82;24.77;;;;;;;;;;5116524;27;20047;-67
2023/10/02 08:08:33;;;;;;;90.60;25.55;;;;;;;;;;5115943;27;20125;-68
2023/10/02 08:10:59;;;;;;;;;;;;;;;;;;5135478;28;20080;-68
2023/10/02 08:13:35;;;;;;;82.30;23.92;;;;;;;;;;5134785;28;19998;-69
2023/10/02 08:16:17;;;;;;;94.80;26.63;;;;;;;;;;5115998;28;20043;-69
2023/10/02 08:18:57;;;;;;;92.00;25.83;;;;;;;;;;5135108;28;20043;-68
2023/10/02 08:21:35;;;;;;;85.40;27.20;;;;;;;;;;5134237;28;20055;-67
2023/10/02 08:24:04;;;;;;;87.53;24.60;;;;;;;;;;5134306;28;20051;-68
2023/10/02 08:26:38;;;;;;;96.60;25.75;;;;;;;;;;5117708;27;20047;-68
2023/10/02 08:29:06;;;;;;;93.55;25.80;;;;;;;;;;5104758;27;20121;-69
2023/10/02 08:31:32;;;;;;;78.75;23.85;;;;;;;;;;5138259;27;20094;-69
2023/10/02 08:34:09;;;;;;;96.35;26.77;;;;;;;;;;5120048;27;20051;-68
2023/10/02 08:36:37;;;;;;;;;;;;;;;;;;5120836;27;20043;-67
2023/10/02 08:39:03;;;;;;;92.05;25.73;;;;;;;;;;5137962;27;20009;-69
2023/10/02 08:41:29;;;;;;;76.68;22.77;;;;;;;;;;5120414;27;20065;-68
2023/10/02 08:43:57;;;;;;;85.30;24.52;;;;;;;;;;5138132;27;20047;-68
2023/10/02 08:46:23;;;;;;;85.82;25.02;;;;;;;;;;5137726;27;20505;-70
2023/10/02 08:48:55;;;;;;;86.47;24.70;;;;;;;;;;5137871;27;20492;-68
2023/10/02 08:51:48;;;;;;;85.55;24.63;;;;;;;;;;5137932;27;20039;-68
2023/10/02 08:54:15;;;;;;;85.30;24.63;;;;;;;;;;5137963;27;20090;-69
2023/10/02 08:56:45;;;;;;;80.10;23.95;;;;;;;;;;5137766;27;20051;-68
2023/10/02 08:59:27;;;;;;;75.55;24.88;;;;;;;;;;5137847;27;20122;-66
2023/10/02 09:02:13;;;;;;;78.13;23.95;;;;;;;;;;5137909;27;20429;-69
2023/10/02 09:04:40;;;;;;;93.25;24.95;;;;;;;;;;5137714;27;20048;-68
2023/10/02 09:07:16;;;;;;;78.47;24.42;;;;;;;;;;5137765;27;20096;-69
2023/10/02 09:09:45;;;;;;;75.95;24.05;;;;;;;;;;5119704;27;20043;-69
2023/10/02 09:12:17;;;;;;;89.25;24.95;;;;;;;;;;5137820;27;20051;-68
2023/10/02 09:14:44;;;;;;;83.82;23.58;;;;;;;;;;5137392;27;20039;-67
2023/10/02 09:17:17;;;;;;;78.45;24.52;;;;;;;;;;5137243;27;20513;-68
2023/10/02 09:19:49;;;;;;;92.30;25.42;;;;;;;;;;5137366;27;20043;-68
2023/10/02 09:22:18;;;;;;;84.30;25.33;;;;;;;;;;5137855;27;20043;-69
2023/10/02 09:24:55;;;;;;;91.95;28.17;;;;;;;;;;5102948;27;20047;-70
2023/10/02 09:27:38;;;;;;;96.50;27.73;;;;;;;;;;5137525;27;20043;-68
2023/10/02 09:30:21;;;;;;;85.72;26.77;;;;;;;;;;5137287;27;20043;-68
2023/10/02 09:32:51;;;;;;;95.95;27.13;;;;;;;;;;5138110;27;20055;-67
2023/10/02 09:35:23;;;;;;;92.25;27.20;;;;;;;;;;5137414;27;20513;-69
2023/10/02 09:37:56;;;;;;;89.13;25.73;;;;;;;;;;5137230;27;20047;-69
2023/10/02 09:40:45;;;;;;;86.97;25.25;;;;;;;;;;5137993;27;20084;-68
2023/10/02 09:43:17;;;;;;;91.20;26.00;;;;;;;;;;5119120;27;20368;-68
2023/10/02 09:45:46;;;;;;;86.40;25.13;;;;;;;;;;5136958;27;20042;-68
2023/10/02 09:48:46;;;;;;;96.93;25.88;;;;;;;;;;5136862;27;20043;-69
2023/10/02 09:51:06;;;;;;;87.55;26.95;;;;;;;;;;5137092;27;20047;-70
2023/10/02 09:53:36;;;;;;;89.40;28.10;;;;;;;;;;5137372;27;20447;-69
2023/10/02 09:56:10;;;;;;;99.75;27.27;;;;;;;;;;5136827;27;20398;-68
2023/10/02 09:58:47;;;;;;;88.97;27.70;;;;;;;;;;5119092;27;20054;-70
2023/10/02 10:03:56;;;;;;;82.68;26.88;;;;;;;;;;5119212;27;20103;-70
2023/10/02 10:06:29;;;;;;;89.15;27.05;;;;;;;;;;5136614;27;20100;-70
2023/10/02 10:11:43;;;;;;;89.15;26.00;;;;;;;;;;5136365;27;20490;-71
2023/10/02 10:14:37;;;;;;;82.90;25.70;;;;;;;;;;5136888;27;20043;-68
2023/10/02 10:17:13;;;;;;;85.18;25.58;;;;;;;;;;5136859;27;20043;-69
2023/10/02 10:19:41;;;;;;;89.57;23.10;;;;;;;;;;5136217;27;20039;-68
2023/10/02 10:22:27;;;;;;;80.43;25.27;;;;;;;;;;5136185;27;20051;-69
2023/10/02 10:24:57;;;;;;;84.85;24.98;;;;;;;;;;5136012;27;20049;-69
2023/10/02 10:27:38;;;;;;;81.40;24.42;;;;;;;;;;5118789;27;20077;-68
2023/10/02 10:30:28;;;;;;;82.40;25.80;;;;;;;;;;5117848;27;20078;-69
2023/10/02 10:33:15;;;;;;;85.10;25.30;;;;;;;;;;5118247;27;20528;-70
2023/10/02 10:35:48;;;;;;;91.65;26.25;;;;;;;;;;5118579;27;20383;-67
2023/10/02 10:38:42;;;;;;;76.57;24.17;;;;;;;;;;5135948;27;20091;-68
2023/10/02 10:41:09;;;;;;;86.13;24.23;;;;;;;;;;5100290;27;20089;-68
2023/10/02 10:43:46;;;;;;;82.28;25.52;;;;;;;;;;5136020;27;20051;-68
2023/10/02 10:46:29;;;;;;;83.30;25.33;;;;;;;;;;5136542;27;20130;-70
2023/10/02 10:48:59;;;;;;;81.05;26.38;;;;;;;;;;5134660;27;20043;-67
2023/10/02 10:51:27;;;;;;;69.60;22.85;;;;;;;;;;5136175;27;20050;-69
2023/10/02 10:54:12;;;;;;;70.10;22.88;;;;;;;;;;5136222;27;20364;-69
2023/10/02 10:56:43;;;;;;;67.53;21.27;;;;;;;;;;5135677;27;20043;-69
2023/10/02 10:59:12;;;;;;;66.72;20.58;;;;;;;;;;5136212;27;20087;-69
2023/10/02 11:02:09;;;;;;;62.45;18.50;;;;;;;;;;5117301;27;20095;-67
2023/10/02 11:04:48;;;;;;;66.55;20.05;;;;;;;;;;5136081;27;20043;-68
2023/10/02 11:07:21;;;;;;;56.95;18.55;;;;;;;;;;5117337;27;20553;-67
2023/10/02 11:10:15;;;;;;;58.28;18.88;;;;;;;;;;5134959;27;20053;-68
2023/10/02 11:12:54;;;;;;;66.55;20.67;;;;;;;;;;5135380;27;20043;-68
2023/10/02 11:18:18;;;;;;;64.70;20.73;;;;;;;;;;5135126;27;20471;-69
2023/10/02 11:20:51;;;;;;;60.45;19.52;;;;;;;;;;5117048;27;20470;-71
2023/10/02 11:23:29;;;;;;;77.32;22.35;;;;;;;;;;5135229;27;20483;-68
2023/10/02 11:25:56;;;;;;;60.38;19.48;;;;;;;;;;5135470;27;20054;-68
2023/10/02 11:28:32;;;;;;;65.63;22.15;;;;;;;;;;5135082;27;20043;-68
2023/10/02 11:31:29;;;;;;;60.10;19.38;;;;;;;;;;5135519;27;20446;-68
2023/10/02 11:34:08;;;;;;;56.10;18.70;;;;;;;;;;5116638;27;20055;-69
2023/10/02 11:36:39;;;;;;;55.00;18.35;;;;;;;;;;5134997;27;20109;-67
2023/10/02 11:39:09;;;;;;;62.55;19.50;;;;;;;;;;5116560;27;20047;-69
2023/10/02 11:41:36;;;;;;;60.40;19.48;;;;;;;;;;5134984;27;20047;-69
2023/10/02 11:44:03;;;;;;;54.60;19.48;;;;;;;;;;5116285;27;20097;-68
2023/10/02 11:46:29;;;;;;;;;;;;;;;;;;5116889;27;20470;-67
2023/10/02 11:48:55;;;;;;;62.95;19.52;;;;;;;;;;5134294;27;20354;-68
2023/10/02 11:51:25;;;;;;;60.28;20.45;;;;;;;;;;5134654;27;20487;-69
2023/10/02 11:53:52;;;;;;;59.40;20.17;;;;;;;;;;5135157;27;20039;-69
2023/10/02 11:56:20;;;;;;;59.40;19.50;;;;;;;;;;5116119;27;20082;-68
2023/10/02 11:58:46;;;;;;;60.80;19.63;;;;;;;;;;5099549;27;20092;-69
2023/10/02 12:01:14;;;;;;;61.53;19.95;;;;;;;;;;5134269;27;20047;-68
2023/10/02 12:03:40;;;;;;;61.05;19.02;;;;;;;;;;5135313;27;20163;-69
2023/10/02 12:06:12;;;;;;;59.65;18.80;;;;;;;;;;5134422;27;20043;-69
2023/10/02 12:08:38;;;;;;;62.00;20.27;;;;;;;;;;5134212;27;20035;-69
2023/10/02 12:11:04;;;;;;;58.95;19.67;;;;;;;;;;5134406;28;20103;-70
2023/10/02 12:13:30;;;;;;;63.15;19.83;;;;;;;;;;5134399;28;20047;-70
2023/10/02 12:15:57;;;;;;;59.17;19.23;;;;;;;;;;5116514;28;20493;-68
2023/10/02 12:18:24;;;;;;;56.80;19.58;;;;;;;;;;5134697;28;20131;-68
2023/10/02 12:20:50;;;;;;;58.63;19.33;;;;;;;;;;5134215;28;20054;-70
2023/10/02 12:23:16;;;;;;;64.10;20.23;;;;;;;;;;5134128;28;20407;-70
2023/10/02 12:25:48;;;;;;;57.20;19.63;;;;;;;;;;5116377;28;20088;-69
2023/10/02 12:28:14;;;;;;;55.63;17.98;;;;;;;;;;5115602;28;20068;-70
2023/10/02 12:30:40;;;;;;;57.83;19.65;;;;;;;;;;5115796;28;20470;-70
2023/10/02 12:33:06;;;;;;;57.83;17.05;;;;;;;;;;5115508;28;20051;-70
2023/10/02 12:35:40;;;;;;;62.10;18.52;;;;;;;;;;5116888;28;20043;-69
2023/10/02 12:38:07;;;;;;;56.47;19.30;;;;;;;;;;5134095;28;20043;-68
2023/10/02 12:40:33;;;;;;;57.85;17.20;;;;;;;;;;5134010;28;20055;-68
2023/10/02 12:43:01;;;;;;;51.38;16.77;;;;;;;;;;5099700;28;20063;-69
2023/10/02 12:45:35;;;;;;;63.13;18.50;;;;;;;;;;5115753;28;20569;-68
2023/10/02 12:48:07;;;;;;;50.40;16.92;;;;;;;;;;5116424;28;20051;-69
2023/10/02 12:50:39;;;;;;;51.25;16.30;;;;;;;;;;5133510;28;20092;-68
2023/10/02 12:53:06;;;;;;;46.97;14.98;;;;;;;;;;5133948;28;20050;-66
2023/10/02 12:55:34;;;;;;;45.13;13.90;;;;;;;;;;5098928;28;20055;-68
2023/10/02 12:58:01;;;;;;;49.47;15.65;;;;;;;;;;5115985;28;20077;-69
2023/10/02 13:00:28;;;;;;;41.88;14.63;;;;;;;;;;5115489;28;20043;-68
2023/10/02 13:02:54;;;;;;;50.67;16.20;;;;;;;;;;5133822;28;20047;-67
2023/10/02 13:05:20;;;;;;;53.58;16.58;;;;;;;;;;5133374;28;20055;-69
2023/10/02 13:07:48;;;;;;;59.83;19.40;;;;;;;;;;5133746;28;20047;-68
2023/10/02 13:10:14;;;;;;;51.75;16.88;;;;;;;;;;5115289;28;20050;-68
2023/10/02 13:12:41;;;;;;;49.42;17.23;;;;;;;;;;5117686;27;20047;-70
2023/10/02 13:15:08;;;;;;;48.40;16.05;;;;;;;;;;5137443;27;20188;-69
2023/10/02 13:17:34;;;;;;;48.67;16.27;;;;;;;;;;5137483;27;20101;-69
2023/10/02 13:20:01;;;;;;;48.78;15.85;;;;;;;;;;5119702;27;20039;-68
2023/10/02 13:22:27;;;;;;;41.38;14.80;;;;;;;;;;5119464;27;20062;-69
2023/10/02 13:24:53;;;;;;;46.30;15.10;;;;;;;;;;5137310;27;20043;-68
2023/10/02 13:27:19;;;;;;;46.22;15.63;;;;;;;;;;5118956;27;20418;-70
2023/10/02 13:29:45;;;;;;;46.42;15.82;;;;;;;;;;5119251;27;20043;-69
2023/10/02 13:32:11;;;;;;;54.25;17.05;;;;;;;;;;5137068;27;20082;-69
2023/10/02 13:34:37;;;;;;;46.80;16.88;;;;;;;;;;5137105;27;20043;-69
2023/10/02 13:37:05;;;;;;;47.95;16.90;;;;;;;;;;5137134;27;20372;-70
2023/10/02 13:39:31;;;;;;;49.85;17.10;;;;;;;;;;5137092;27;20068;-69
2023/10/02 13:41:58;;;;;;;45.92;15.52;;;;;;;;;;5137083;27;20051;-70
2023/10/02 13:44:24;;;;;;;50.05;16.70;;;;;;;;;;5119548;27;20423;-70
2023/10/02 13:46:51;;;;;;;55.50;16.30;;;;;;;;;;5102028;27;20043;-70
2023/10/02 13:49:19;;;;;;;61.35;17.63;;;;;;;;;;5119332;27;20177;-70
2023/10/02 13:51:45;;;;;;;50.50;17.77;;;;;;;;;;5118621;27;20050;-70
2023/10/02 13:54:12;;;;;;;50.67;15.70;;;;;;;;;;5118802;27;20122;-69
2023/10/02 13:56:38;;;;;;;55.28;16.80;;;;;;;;;;5136780;27;20047;-70
2023/10/02 13:59:05;;;;;;;57.45;18.00;;;;;;;;;;5118707;27;20047;-71
2023/10/02 14:01:32;;;;;;;54.63;18.02;;;;;;;;;;5136842;27;20112;-70
2023/10/02 14:03:59;;;;;;;50.30;15.60;;;;;;;;;;5136719;27;20099;-69
2023/10/02 14:06:25;;;;;;;46.90;15.30;;;;;;;;;;5136600;27;20047;-70
2023/10/02 14:08:52;;;;;;;47.63;15.68;;;;;;;;;;5118455;27;20433;-70
2023/10/02 14:11:23;;;;;;;46.88;15.27;;;;;;;;;;5118337;27;20055;-69
2023/10/02 14:13:49;;;;;;;49.55;15.10;;;;;;;;;;5136404;27;20078;-70
2023/10/02 14:16:23;;;;;;;46.97;15.77;;;;;;;;;;5118583;27;20100;-69
2023/10/02 14:18:53;;;;;;;50.50;16.58;;;;;;;;;;5136858;27;20122;-69
2023/10/02 14:21:21;;;;;;;51.17;15.82;;;;;;;;;;5136833;27;20065;-69
2023/10/02 14:23:48;;;;;;;39.70;14.23;;;;;;;;;;5135006;27;20047;-68
2023/10/02 14:26:14;;;;;;;;;;;;;;;;;;5136652;27;20043;-70
2023/10/02 14:28:40;;;;;;;44.63;14.55;;;;;;;;;;5136081;27;19924;-69
2023/10/02 14:31:07;;;;;;;48.10;15.40;;;;;;;;;;5136647;27;20054;-70
2023/10/02 14:33:34;;;;;;;43.92;15.10;;;;;;;;;;5118154;27;20126;-71
2023/10/02 14:36:06;;;;;;;;;;;;;;;;;;5118156;27;20047;-69
2023/10/02 14:38:32;;;;;;;39.85;12.85;;;;;;;;;;5136210;27;19919;-70
2023/10/02 14:40:58;;;;;;;44.97;14.73;;;;;;;;;;5136330;27;20064;-71
2023/10/02 14:43:24;;;;;;;43.25;14.35;;;;;;;;;;5135747;27;20047;-70
2023/10/02 14:45:53;;;;;;;45.42;14.85;;;;;;;;;;5135942;27;20047;-69
2023/10/02 14:48:20;;;;;;;42.60;15.02;;;;;;;;;;5135675;27;20057;-70
2023/10/02 14:50:46;;;;;;;;;;;;;;;;;;5136202;27;20058;-70
2023/10/02 14:53:12;;;;;;;45.83;13.98;;;;;;;;;;5117700;27;19919;-69
2023/10/02 14:55:49;;;;;;;40.78;13.52;;;;;;;;;;5117463;27;20047;-70
2023/10/02 14:58:20;;;;;;;46.33;13.65;;;;;;;;;;5118321;27;20130;-69
2023/10/02 15:00:47;;;;;;;42.45;13.95;;;;;;;;;;5117858;27;20043;-69
2023/10/02 15:03:14;;;;;;;44.28;12.80;;;;;;;;;;5117569;27;20047;-70
2023/10/02 15:05:40;;;;;;;43.00;13.30;;;;;;;;;;5136157;27;20129;-70
2023/10/02 15:08:11;;;;;;;40.83;13.63;;;;;;;;;;5100265;27;20142;-69
2023/10/02 15:10:37;;;;;;;44.30;14.85;;;;;;;;;;5136016;27;20051;-72
2023/10/02 15:13:03;;;;;;;44.38;14.02;;;;;;;;;;5135902;27;20047;-70
2023/10/02 15:15:30;;;;;;;44.20;13.95;;;;;;;;;;5117653;27;20061;-69
2023/10/02 15:17:57;;;;;;;42.58;14.65;;;;;;;;;;5135288;27;20047;-70
2023/10/02 15:20:24;;;;;;;42.53;13.77;;;;;;;;;;5116980;27;20050;-70
2023/10/02 15:22:50;;;;;;;;;;;;;;;;;;5118287;27;20108;-70